Time;durP1;ratioP1;P1;durP2;ratioP2;P2;SDS_P1;SDS_P2;PMS_P1;PMS_P2;Temp;Humidity;BMP_temperature;BMP_pressure;BME280_temperature;BME280_humidity;BME280_pressure;Samples;Min_cycle;Max_cycle;Signal;HPM_P1;HPM_P2
2021/04/12 00:02:48;;;;;;;11.98;5.45;;;28.80;89.50;;;;;;5097438;28;20020;-50
2021/04/12 00:05:36;;;;;;;14.68;5.55;;;28.90;89.50;;;;;;5102151;28;20095;-49
2021/04/12 00:08:47;;;;;;;8.02;4.35;;;28.80;89.40;;;;;;5103787;28;20082;-47
2021/04/12 00:11:29;;;;;;;19.38;7.30;;;28.80;89.30;;;;;;5083706;28;20032;-52
2021/04/12 00:13:59;;;;;;;13.63;5.95;;;28.80;89.40;;;;;;5100309;28;20081;-51
2021/04/12 00:16:43;;;;;;;9.20;5.03;;;28.90;89.60;;;;;;5104104;28;20019;-52
2021/04/12 00:19:22;;;;;;;11.45;5.57;;;28.90;89.60;;;;;;5117500;28;20043;-53
2021/04/12 00:22:09;;;;;;;12.75;5.10;;;28.90;89.50;;;;;;5124053;28;20223;-49
2021/04/12 00:24:54;;;;;;;13.13;4.68;;;28.90;89.50;;;;;;5103677;28;20020;-50
2021/04/12 00:27:30;;;;;;;12.32;4.70;;;28.90;89.50;;;;;;5101198;28;20380;-51
2021/04/12 00:30:09;;;;;;;11.80;4.25;;;28.90;89.50;;;;;;5104474;28;20304;-50
2021/04/12 00:32:41;;;;;;;13.63;4.40;;;28.90;89.50;;;;;;5083108;28;20093;-54
2021/04/12 00:35:18;;;;;;;11.77;4.45;;;28.90;89.50;;;;;;5083974;28;20029;-53
2021/04/12 00:38:01;;;;;;;8.95;4.03;;;28.90;89.80;;;;;;5066243;28;20050;-51
2021/04/12 00:41:14;;;;;;;12.25;4.68;;;28.90;90.00;;;;;;5085024;28;20055;-51
2021/04/12 00:44:07;;;;;;;19.85;8.07;;;28.90;90.00;;;;;;5070511;28;20021;-49
2021/04/12 00:46:58;;;;;;;21.20;10.48;;;28.90;90.00;;;;;;5088028;28;20023;-52
2021/04/12 00:49:37;;;;;;;22.13;11.38;;;28.90;90.00;;;;;;5087407;28;20197;-51
2021/04/12 00:52:18;;;;;;;20.88;9.65;;;28.90;90.20;;;;;;5087492;28;20039;-53
2021/04/12 00:54:49;;;;;;;21.60;13.30;;;28.90;90.40;;;;;;5087490;28;20036;-50
2021/04/12 00:57:39;;;;;;;17.80;7.70;;;28.90;90.10;;;;;;5087330;28;20263;-51
2021/04/12 01:00:05;;;;;;;24.67;15.50;;;28.80;90.20;;;;;;5073921;28;20081;-54
2021/04/12 01:02:51;;;;;;;17.13;11.15;;;28.90;90.30;;;;;;5086974;28;20016;-48
2021/04/12 01:06:12;;;;;;;16.23;7.53;;;28.80;90.40;;;;;;5086967;28;20021;-50
2021/04/12 01:09:02;;;;;;;16.25;8.57;;;28.90;90.50;;;;;;4986109;28;20022;-50
2021/04/12 01:11:57;;;;;;;16.60;7.30;;;28.80;90.40;;;;;;4986287;28;20023;-54
2021/04/12 01:14:45;;;;;;;13.05;5.75;;;28.90;90.30;;;;;;5050761;28;20024;-51
2021/04/12 01:17:39;;;;;;;11.48;5.43;;;28.80;90.20;;;;;;5086571;28;20024;-52
2021/04/12 01:20:19;;;;;;;10.93;5.25;;;28.80;90.20;;;;;;5086284;28;20098;-56
2021/04/12 01:23:23;;;;;;;14.35;5.53;;;28.80;90.20;;;;;;5087143;28;20016;-51
2021/04/12 01:26:26;;;;;;;10.10;3.92;;;28.80;89.90;;;;;;5086890;28;20021;-51
2021/04/12 01:29:17;;;;;;;7.88;3.75;;;28.80;89.10;;;;;;5086802;28;20024;-52
2021/04/12 01:32:12;;;;;;;10.82;3.40;;;28.80;88.80;;;;;;5086617;28;20020;-48
2021/04/12 01:35:03;;;;;;;8.20;3.50;;;28.80;88.60;;;;;;5087013;28;20022;-53
2021/04/12 01:37:53;;;;;;;12.18;4.13;;;28.80;88.70;;;;;;5086715;28;20027;-57
2021/04/12 01:40:35;;;;;;;9.20;3.50;;;28.70;88.70;;;;;;5073137;28;20055;-50
2021/04/12 01:43:24;;;;;;;9.80;3.40;;;28.70;88.80;;;;;;5086326;28;20066;-50
2021/04/12 01:45:59;;;;;;;10.15;3.50;;;28.70;88.90;;;;;;5068609;28;20313;-50
2021/04/12 01:48:50;;;;;;;13.68;4.20;;;28.70;89.00;;;;;;5086468;28;20085;-51
2021/04/12 01:51:35;;;;;;;17.13;5.10;;;28.60;88.70;;;;;;5086204;28;20023;-52
2021/04/12 01:54:21;;;;;;;13.85;5.55;;;28.60;88.80;;;;;;5087046;28;20020;-54
2021/04/12 01:57:15;;;;;;;19.35;11.27;;;28.70;88.50;;;;;;5086577;28;20021;-49
2021/04/12 02:00:13;;;;;;;12.23;6.10;;;28.60;89.00;;;;;;5054939;28;20071;-52
2021/04/12 02:03:14;;;;;;;14.70;5.50;;;28.60;89.20;;;;;;5086891;28;20024;-55
2021/04/12 02:05:58;;;;;;;16.13;5.78;;;28.60;89.60;;;;;;5086680;28;20089;-53
2021/04/12 02:08:50;;;;;;;12.15;4.60;;;28.60;89.80;;;;;;5068495;28;20445;-55
2021/04/12 02:11:29;;;;;;;8.25;3.67;;;28.60;90.00;;;;;;5086425;28;20095;-55
2021/04/12 02:14:08;;;;;;;11.23;3.60;;;28.60;90.10;;;;;;5069244;28;20024;-61
2021/04/12 02:17:00;;;;;;;8.60;3.17;;;28.60;90.10;;;;;;5086166;28;20212;-50
2021/04/12 02:20:01;;;;;;;5.50;2.70;;;28.60;90.00;;;;;;5077548;28;20068;-51
2021/04/12 02:23:03;;;;;;;6.60;2.40;;;28.60;90.00;;;;;;5103268;28;20036;-50
2021/04/12 02:25:52;;;;;;;4.35;1.60;;;28.50;89.60;;;;;;5125809;28;20027;-49
2021/04/12 02:28:34;;;;;;;7.45;1.75;;;28.50;89.20;;;;;;5114403;28;20027;-50
2021/04/12 02:31:33;;;;;;;6.45;1.50;;;28.50;89.30;;;;;;5087771;28;20308;-50
2021/04/12 02:33:59;;;;;;;6.28;1.35;;;28.50;89.10;;;;;;5052273;28;20055;-50
2021/04/12 02:36:41;;;;;;;3.10;0.90;;;28.40;89.10;;;;;;5095781;28;20032;-51
2021/04/12 02:39:51;;;;;;;2.47;0.98;;;28.40;89.10;;;;;;5105625;28;20081;-50
2021/04/12 02:42:20;;;;;;;4.38;0.98;;;28.40;89.10;;;;;;5075005;28;20295;-49
2021/04/12 02:45:19;;;;;;;2.58;0.90;;;28.40;89.10;;;;;;5088459;28;20099;-53
2021/04/12 02:48:21;;;;;;;3.45;1.20;;;28.40;89.20;;;;;;5067786;28;20032;-55
2021/04/12 02:51:17;;;;;;;3.03;1.10;;;28.30;89.30;;;;;;5053514;28;20035;-52
2021/04/12 02:54:06;;;;;;;4.65;1.73;;;28.30;89.70;;;;;;5085112;28;20020;-53
2021/04/12 02:56:35;;;;;;;5.68;1.20;;;28.30;89.90;;;;;;5093719;28;20023;-49
2021/04/12 02:59:29;;;;;;;3.85;1.13;;;28.20;90.10;;;;;;5083015;28;20028;-50
2021/04/12 03:02:14;;;;;;;4.15;1.10;;;28.20;90.30;;;;;;5102652;28;20071;-47
2021/04/12 03:05:27;;;;;;;2.72;0.77;;;28.20;90.40;;;;;;5078068;28;20241;-45
2021/04/12 03:08:26;;;;;;;6.63;1.20;;;28.10;90.70;;;;;;5065218;28;20221;-46
2021/04/12 03:11:11;;;;;;;3.78;0.93;;;28.10;90.70;;;;;;5081530;28;20414;-55
2021/04/12 03:14:14;;;;;;;3.60;1.00;;;28.10;90.80;;;;;;5104353;28;20016;-48
2021/04/12 03:17:42;;;;;;;3.35;1.00;;;28.10;90.70;;;;;;5104826;28;20027;-48
2021/04/12 03:20:17;;;;;;;2.80;0.82;;;28.00;90.60;;;;;;4986013;28;20039;-46
2021/04/12 03:23:10;;;;;;;5.72;0.80;;;28.00;90.60;;;;;;5071254;28;20028;-48
2021/04/12 03:25:52;;;;;;;2.72;0.98;;;28.00;90.60;;;;;;5069709;28;20158;-46
2021/04/12 03:28:39;;;;;;;1.75;0.88;;;27.90;90.60;;;;;;5104251;28;20020;-42
2021/04/12 03:31:27;;;;;;;2.63;1.00;;;28.00;90.60;;;;;;5104420;28;20290;-46
2021/04/12 03:34:13;;;;;;;5.00;0.80;;;27.90;90.50;;;;;;5104725;28;20023;-45
2021/04/12 03:36:39;;;;;;;3.10;0.80;;;27.90;90.50;;;;;;5104616;28;20083;-45
2021/04/12 03:39:11;;;;;;;2.17;0.90;;;27.90;90.50;;;;;;5104168;28;20031;-48
2021/04/12 03:41:41;;;;;;;2.50;0.73;;;27.90;90.50;;;;;;5104453;28;20080;-47
2021/04/12 03:44:14;;;;;;;1.02;0.70;;;27.90;90.50;;;;;;5104389;28;20031;-49
2021/04/12 03:47:02;;;;;;;1.48;0.75;;;27.90;90.50;;;;;;5104399;28;20016;-44
2021/04/12 03:49:57;;;;;;;2.40;0.70;;;27.80;90.50;;;;;;5104375;28;20222;-51
2021/04/12 03:52:48;;;;;;;2.13;0.80;;;27.80;90.50;;;;;;5104329;28;20012;-50
2021/04/12 03:55:20;;;;;;;1.42;0.60;;;27.80;90.50;;;;;;5104249;28;20024;-44
2021/04/12 03:58:04;;;;;;;2.65;0.70;;;27.80;90.60;;;;;;5104441;28;20077;-48
2021/04/12 04:00:51;;;;;;;3.03;0.80;;;27.80;90.60;;;;;;5104396;28;20024;-57
2021/04/12 04:03:21;;;;;;;1.23;0.70;;;27.80;90.60;;;;;;5053534;28;20036;-47
2021/04/12 04:06:16;;;;;;;1.85;0.70;;;27.80;90.60;;;;;;5104374;28;20328;-51
2021/04/12 04:08:53;;;;;;;2.92;0.77;;;27.80;90.70;;;;;;5015207;28;20068;-54
2021/04/12 04:11:26;;;;;;;2.90;1.10;;;27.80;90.80;;;;;;5096681;28;20008;-48
2021/04/12 04:14:02;;;;;;;2.85;1.00;;;27.80;90.70;;;;;;5094443;28;20196;-47
2021/04/12 04:16:48;;;;;;;3.13;0.93;;;27.80;90.70;;;;;;5100091;28;20057;-46
2021/04/12 04:19:48;;;;;;;1.55;0.85;;;27.70;90.80;;;;;;5052558;28;20071;-51
2021/04/12 04:22:30;;;;;;;3.05;0.77;;;27.70;90.80;;;;;;5103886;28;20065;-44
2021/04/12 04:25:21;;;;;;;2.50;0.75;;;27.70;90.70;;;;;;5104452;28;20016;-44
2021/04/12 04:28:13;;;;;;;2.65;1.30;;;27.70;90.80;;;;;;5085713;28;20319;-45
2021/04/12 04:31:04;;;;;;;4.68;1.17;;;27.70;90.80;;;;;;5103837;28;20028;-52
2021/04/12 04:33:46;;;;;;;7.75;2.20;;;27.70;90.80;;;;;;5103675;28;20308;-50
2021/04/12 04:36:37;;;;;;;14.73;3.55;;;27.70;91.20;;;;;;5103753;28;20324;-48
2021/04/12 04:39:41;;;;;;;12.02;3.40;;;27.70;91.50;;;;;;5103862;28;20069;-51
2021/04/12 04:42:43;;;;;;;10.55;4.10;;;27.70;91.80;;;;;;5103745;28;20047;-45
2021/04/12 04:45:37;;;;;;;11.23;3.88;;;27.60;92.10;;;;;;5103767;28;20065;-48
2021/04/12 04:48:38;;;;;;;13.35;4.53;;;27.60;92.00;;;;;;5103537;28;20062;-48
2021/04/12 04:51:23;;;;;;;11.45;4.50;;;27.60;92.20;;;;;;5103515;28;20051;-46
2021/04/12 04:54:05;;;;;;;11.70;4.88;;;27.60;92.10;;;;;;5103713;28;20016;-43
2021/04/12 04:56:59;;;;;;;14.00;5.00;;;27.60;92.40;;;;;;5103870;28;20024;-49
2021/04/12 04:59:55;;;;;;;12.77;5.03;;;27.60;92.30;;;;;;5103899;28;20024;-47
2021/04/12 05:02:46;;;;;;;13.18;4.60;;;27.60;92.40;;;;;;5067528;28;20028;-46
2021/04/12 05:05:34;;;;;;;10.57;3.80;;;27.60;92.50;;;;;;5103766;28;20042;-44
2021/04/12 05:08:39;;;;;;;12.15;3.97;;;27.60;92.30;;;;;;5085606;28;20028;-49
2021/04/12 05:11:32;;;;;;;7.35;3.58;;;27.60;92.50;;;;;;5052840;28;20078;-43
2021/04/12 05:14:11;;;;;;;12.82;3.95;;;27.50;92.50;;;;;;5066174;28;20028;-46
2021/04/12 05:16:53;;;;;;;6.78;3.50;;;27.50;92.40;;;;;;5103746;28;20016;-44
2021/04/12 05:19:54;;;;;;;8.07;3.13;;;27.50;92.40;;;;;;5103300;28;20417;-45
2021/04/12 05:22:45;;;;;;;11.32;3.22;;;27.50;92.40;;;;;;5103419;28;20024;-48
2021/04/12 05:25:31;;;;;;;7.43;2.60;;;27.50;92.40;;;;;;5103472;28;20312;-44
2021/04/12 05:28:30;;;;;;;5.65;1.80;;;27.50;92.40;;;;;;5107165;28;20082;-49
2021/04/12 05:31:24;;;;;;;6.97;2.33;;;27.40;92.40;;;;;;5107093;28;20013;-46
2021/04/12 05:34:04;;;;;;;6.18;1.85;;;27.40;92.40;;;;;;5106881;28;20023;-43
2021/04/12 05:37:09;;;;;;;7.53;2.08;;;27.40;92.40;;;;;;5106984;28;20016;-46
2021/04/12 05:40:02;;;;;;;10.30;1.95;;;27.40;92.40;;;;;;5051578;28;20035;-43
2021/04/12 05:42:28;;;;;;;;;;;27.40;92.40;;;;;;5068881;28;20096;-44
2021/04/12 05:45:07;;;;;;;7.57;2.35;;;27.30;92.50;;;;;;5107222;28;19966;-48
2021/04/12 05:47:57;;;;;;;5.05;2.00;;;27.30;92.50;;;;;;5107227;28;20016;-47
2021/04/12 05:50:42;;;;;;;7.35;1.85;;;27.30;92.60;;;;;;5106938;28;20028;-44
2021/04/12 05:53:46;;;;;;;8.27;2.10;;;27.30;92.70;;;;;;5106635;28;20016;-45
2021/04/12 05:56:27;;;;;;;7.43;2.47;;;27.30;92.70;;;;;;5106020;28;20336;-44
2021/04/12 05:59:18;;;;;;;5.78;1.83;;;27.30;92.70;;;;;;5106494;28;20039;-43
2021/04/12 06:01:44;;;;;;;4.95;2.00;;;27.30;92.70;;;;;;5105993;28;20243;-46
2021/04/12 06:04:34;;;;;;;4.57;1.48;;;27.30;92.70;;;;;;5106442;28;20032;-45
2021/04/12 06:07:19;;;;;;;9.25;2.25;;;27.30;92.60;;;;;;5088159;28;20094;-47
2021/04/12 06:09:54;;;;;;;5.18;1.85;;;27.30;92.60;;;;;;5105780;28;20216;-46
2021/04/12 06:12:51;;;;;;;6.38;2.15;;;27.30;92.60;;;;;;5105989;28;20239;-44
2021/04/12 06:15:41;;;;;;;7.55;1.80;;;27.20;92.70;;;;;;5106106;28;20250;-44
2021/04/12 06:18:37;;;;;;;6.97;2.20;;;27.20;92.80;;;;;;5105383;28;20028;-47
2021/04/12 06:21:36;;;;;;;5.28;2.10;;;27.20;92.90;;;;;;5105785;28;20027;-48
2021/04/12 06:24:21;;;;;;;7.20;2.35;;;27.20;92.90;;;;;;5105030;28;20390;-46
2021/04/12 06:27:21;;;;;;;5.65;2.03;;;27.10;92.90;;;;;;5105707;28;20039;-52
2021/04/12 06:30:05;;;;;;;7.97;2.00;;;27.20;92.90;;;;;;5105908;28;20313;-48
2021/04/12 06:32:56;;;;;;;6.60;2.20;;;27.20;92.90;;;;;;5105670;28;20369;-45
2021/04/12 06:35:26;;;;;;;7.53;2.20;;;27.10;92.90;;;;;;5105670;28;20320;-46
2021/04/12 06:38:19;;;;;;;9.57;2.17;;;27.10;92.80;;;;;;5105471;28;20122;-44
2021/04/12 06:41:23;;;;;;;5.70;1.80;;;27.20;92.80;;;;;;5105450;28;20197;-44
2021/04/12 06:44:01;;;;;;;6.35;2.40;;;27.10;92.90;;;;;;5105700;28;20036;-43
2021/04/12 06:47:05;;;;;;;6.88;2.10;;;27.10;92.80;;;;;;5105144;28;20016;-50
2021/04/12 06:50:03;;;;;;;7.25;2.05;;;27.20;92.90;;;;;;5105622;28;20031;-52
2021/04/12 06:52:48;;;;;;;6.80;2.03;;;27.10;92.80;;;;;;5105377;28;20364;-51
2021/04/12 06:55:20;;;;;;;5.05;1.92;;;27.10;92.70;;;;;;5105057;28;20093;-47
2021/04/12 06:58:14;;;;;;;5.50;1.83;;;27.20;92.70;;;;;;5105189;28;20118;-44
2021/04/12 07:00:56;;;;;;;10.25;2.20;;;27.10;92.60;;;;;;5105199;28;20024;-44
2021/04/12 07:03:53;;;;;;;6.97;1.95;;;27.10;92.70;;;;;;5105150;28;20027;-50
2021/04/12 07:06:57;;;;;;;10.55;4.68;;;27.10;92.70;;;;;;5104800;28;20020;-55
2021/04/12 07:10:00;;;;;;;12.50;7.03;;;27.00;92.70;;;;;;5105332;28;20024;-45
2021/04/12 07:12:53;;;;;;;16.27;8.80;;;27.10;92.90;;;;;;5104970;28;20181;-44
2021/04/12 07:15:57;;;;;;;18.52;12.50;;;27.00;93.00;;;;;;5104737;28;20042;-44
2021/04/12 07:19:00;;;;;;;21.05;12.82;;;27.00;93.00;;;;;;5104535;28;20313;-46
2021/04/12 07:21:56;;;;;;;18.73;9.43;;;27.00;93.00;;;;;;5104770;28;20020;-48
2021/04/12 07:24:51;;;;;;;11.57;5.97;;;27.00;93.00;;;;;;5104777;28;20040;-46
2021/04/12 07:27:59;;;;;;;9.57;4.90;;;27.00;92.90;;;;;;5104348;28;20083;-56
2021/04/12 07:30:32;;;;;;;11.55;4.60;;;27.00;92.80;;;;;;5104433;28;20028;-44
2021/04/12 07:33:38;;;;;;;9.30;3.25;;;27.00;92.70;;;;;;5104268;28;20026;-46
2021/04/12 07:36:32;;;;;;;8.10;3.28;;;27.00;92.90;;;;;;5104145;28;20335;-48
2021/04/12 07:39:31;;;;;;;8.15;2.90;;;27.00;92.60;;;;;;5104326;28;20032;-55
2021/04/12 07:42:21;;;;;;;5.65;2.38;;;27.00;92.60;;;;;;5070349;28;20039;-48
2021/04/12 07:45:13;;;;;;;8.77;2.90;;;27.00;92.60;;;;;;5104973;28;20051;-47
2021/04/12 07:47:52;;;;;;;9.80;2.40;;;26.90;92.60;;;;;;5103825;28;20193;-47
2021/04/12 07:50:46;;;;;;;5.80;2.20;;;26.90;92.50;;;;;;5103888;28;20024;-47
2021/04/12 07:53:25;;;;;;;8.82;2.10;;;26.90;92.50;;;;;;5104165;28;20031;-44
2021/04/12 07:56:16;;;;;;;6.82;1.63;;;26.90;92.60;;;;;;5103848;28;20020;-43
2021/04/12 07:59:34;;;;;;;7.35;2.28;;;26.90;92.70;;;;;;5103995;28;20024;-50
2021/04/12 08:02:52;;;;;;;10.98;2.10;;;26.90;92.60;;;;;;5073099;28;20028;-55
2021/04/12 08:05:30;;;;;;;5.15;1.80;;;26.90;92.70;;;;;;5070028;28;20028;-49
2021/04/12 08:08:18;;;;;;;4.50;1.90;;;26.90;92.60;;;;;;5103673;28;20043;-45
2021/04/12 08:11:18;;;;;;;8.60;2.20;;;26.80;92.70;;;;;;5103898;28;20020;-47
2021/04/12 08:14:22;;;;;;;8.80;2.10;;;26.80;92.80;;;;;;5104009;28;20016;-44
2021/04/12 08:17:05;;;;;;;7.18;1.88;;;26.80;92.90;;;;;;5103743;28;20304;-45
2021/04/12 08:20:00;;;;;;;6.03;1.77;;;26.80;92.90;;;;;;5103464;28;20048;-49
2021/04/12 08:22:57;;;;;;;6.75;2.17;;;26.80;92.90;;;;;;5104348;28;20028;-53
2021/04/12 08:25:27;;;;;;;5.20;2.00;;;26.80;93.00;;;;;;5103694;28;20024;-45
2021/04/12 08:28:26;;;;;;;6.50;2.00;;;26.70;92.90;;;;;;5103858;28;20052;-47
2021/04/12 08:31:38;;;;;;;8.18;2.50;;;26.70;93.00;;;;;;5086038;28;20328;-45
2021/04/12 08:34:32;;;;;;;9.95;2.10;;;26.70;93.00;;;;;;5085851;28;20038;-43
2021/04/12 08:37:35;;;;;;;5.30;1.90;;;26.70;93.00;;;;;;5103424;28;20016;-46
2021/04/12 08:40:26;;;;;;;7.30;1.85;;;26.70;93.00;;;;;;5103234;28;20092;-48
2021/04/12 08:43:01;;;;;;;5.80;2.03;;;26.70;93.00;;;;;;5103623;28;20016;-46
2021/04/12 08:45:52;;;;;;;8.82;2.08;;;26.60;93.10;;;;;;5103347;28;20020;-53
2021/04/12 08:48:36;;;;;;;5.75;2.10;;;26.60;93.00;;;;;;5103708;28;20087;-54
2021/04/12 08:51:30;;;;;;;10.32;2.17;;;26.60;93.00;;;;;;5103649;28;20080;-46
2021/04/12 08:54:28;;;;;;;8.40;2.10;;;26.60;93.10;;;;;;5103526;28;20044;-49
2021/04/12 08:57:16;;;;;;;9.88;2.33;;;26.60;92.90;;;;;;5103530;28;20013;-52
2021/04/12 09:00:19;;;;;;;5.88;2.28;;;26.60;93.00;;;;;;5103822;28;20091;-43
2021/04/12 09:03:04;;;;;;;4.13;2.00;;;26.60;92.90;;;;;;5106958;28;20027;-46
2021/04/12 09:05:34;;;;;;;6.63;2.45;;;26.60;93.00;;;;;;5107213;28;20024;-50
2021/04/12 09:08:12;;;;;;;10.32;2.22;;;26.60;93.00;;;;;;5107463;28;20035;-45
2021/04/12 09:11:04;;;;;;;6.10;2.13;;;26.60;93.10;;;;;;5107227;28;20020;-46
2021/04/12 09:14:14;;;;;;;7.20;2.30;;;26.60;93.10;;;;;;5107258;28;20017;-48
2021/04/12 09:17:15;;;;;;;5.45;2.58;;;26.60;93.10;;;;;;5106973;28;20024;-43
2021/04/12 09:20:03;;;;;;;6.00;2.10;;;26.50;93.10;;;;;;5106836;28;20055;-55
2021/04/12 09:22:54;;;;;;;13.18;2.40;;;26.50;93.20;;;;;;5106899;28;20213;-46
2021/04/12 09:25:39;;;;;;;7.28;2.30;;;26.50;93.20;;;;;;5106554;28;20024;-42
2021/04/12 09:28:28;;;;;;;7.70;2.47;;;26.50;93.20;;;;;;5107303;28;20024;-43
2021/04/12 09:31:32;;;;;;;7.75;2.33;;;26.50;93.20;;;;;;5107004;28;20016;-43
2021/04/12 09:34:36;;;;;;;9.27;2.38;;;26.50;93.20;;;;;;5106827;28;20300;-43
2021/04/12 09:37:39;;;;;;;10.68;2.63;;;26.50;93.10;;;;;;5106523;28;20047;-43
2021/04/12 09:40:56;;;;;;;6.78;2.40;;;26.50;93.10;;;;;;5106523;28;20031;-48
2021/04/12 09:43:23;;;;;;;6.20;2.20;;;26.50;93.10;;;;;;5061990;28;20039;-45
2021/04/12 09:46:14;;;;;;;8.48;2.10;;;26.50;93.10;;;;;;5107151;28;20235;-50
2021/04/12 09:48:40;;;;;;;5.72;2.00;;;26.50;93.10;;;;;;5106603;28;20186;-47
2021/04/12 09:51:25;;;;;;;8.75;2.60;;;26.50;93.20;;;;;;5106732;28;20024;-45
2021/04/12 09:54:10;;;;;;;7.22;2.30;;;26.50;93.20;;;;;;5106762;28;20028;-44
2021/04/12 09:57:00;;;;;;;7.78;2.45;;;26.50;93.20;;;;;;5106668;28;20012;-43
2021/04/12 10:00:08;;;;;;;12.00;2.55;;;26.50;93.30;;;;;;5106966;28;20053;-46
2021/04/12 10:03:06;;;;;;;8.48;2.20;;;26.50;93.30;;;;;;5106220;28;20012;-47
2021/04/12 10:05:54;;;;;;;7.63;2.63;;;26.40;93.30;;;;;;5106290;28;20028;-46
2021/04/12 10:08:27;;;;;;;16.48;2.33;;;26.40;93.40;;;;;;5106418;28;20038;-51
2021/04/12 10:10:58;;;;;;;7.20;2.20;;;26.40;93.40;;;;;;5106459;28;20269;-45
2021/04/12 10:13:29;;;;;;;7.78;2.22;;;26.40;93.30;;;;;;5105886;28;20028;-55
2021/04/12 10:16:14;;;;;;;5.05;2.45;;;26.40;93.30;;;;;;5105989;28;20008;-51
2021/04/12 10:18:50;;;;;;;11.93;2.60;;;26.50;93.30;;;;;;5105876;28;20312;-54
2021/04/12 10:21:57;;;;;;;11.85;2.47;;;26.50;93.10;;;;;;5105792;28;20338;-49
2021/04/12 10:24:41;;;;;;;6.82;2.13;;;26.50;93.00;;;;;;5105696;28;20212;-50
2021/04/12 10:27:19;;;;;;;10.02;2.45;;;26.50;92.90;;;;;;5105882;28;20016;-47
2021/04/12 10:30:18;;;;;;;9.30;2.20;;;26.50;92.90;;;;;;5106092;28;20254;-54
2021/04/12 10:33:07;;;;;;;8.82;1.88;;;26.50;92.80;;;;;;5105297;28;20243;-53
2021/04/12 10:36:06;;;;;;;6.47;1.80;;;26.50;92.80;;;;;;5105631;28;20024;-53
2021/04/12 10:38:39;;;;;;;9.43;2.38;;;26.40;92.80;;;;;;5105531;28;20320;-46
2021/04/12 10:41:12;;;;;;;9.43;2.00;;;26.40;92.80;;;;;;5087902;28;20084;-48
2021/04/12 10:43:54;;;;;;;9.82;2.00;;;26.40;92.90;;;;;;5105951;28;20024;-44
2021/04/12 10:46:33;;;;;;;8.05;2.08;;;26.40;93.00;;;;;;5105570;28;20024;-43
2021/04/12 10:49:17;;;;;;;8.77;2.08;;;26.40;93.00;;;;;;5105918;28;20032;-44
2021/04/12 10:51:49;;;;;;;6.75;2.42;;;26.30;93.10;;;;;;5105259;28;20023;-44
2021/04/12 10:54:34;;;;;;;8.10;2.10;;;26.30;93.10;;;;;;5105613;28;20031;-45
2021/04/12 10:57:42;;;;;;;6.45;2.30;;;26.40;93.20;;;;;;5087188;28;20024;-46
2021/04/12 11:00:27;;;;;;;5.72;2.22;;;26.30;93.30;;;;;;5065752;28;20081;-44
2021/04/12 11:03:18;;;;;;;7.82;2.20;;;26.30;93.40;;;;;;5105147;28;20038;-44
2021/04/12 11:05:52;;;;;;;11.98;2.70;;;26.30;93.40;;;;;;5105241;28;20316;-43
2021/04/12 11:09:08;;;;;;;8.48;2.60;;;26.30;93.50;;;;;;5105006;28;20225;-42
2021/04/12 11:12:01;;;;;;;9.48;3.10;;;26.30;93.40;;;;;;5067147;28;20032;-51
2021/04/12 11:14:37;;;;;;;12.63;3.38;;;26.30;93.50;;;;;;5073795;28;20036;-54
2021/04/12 11:17:23;;;;;;;8.88;2.60;;;26.30;93.50;;;;;;5104868;28;20032;-47
2021/04/12 11:20:10;;;;;;;6.43;2.47;;;26.30;93.60;;;;;;5104840;28;20044;-44
2021/04/12 11:22:59;;;;;;;15.88;3.28;;;26.30;93.60;;;;;;5105001;28;20012;-47
2021/04/12 11:25:36;;;;;;;9.68;3.15;;;26.40;93.60;;;;;;5104030;28;20046;-51
2021/04/12 11:28:05;;;;;;;8.65;2.90;;;26.40;93.70;;;;;;5104715;28;20028;-47
2021/04/12 11:30:50;;;;;;;13.38;3.28;;;26.40;93.70;;;;;;5104490;28;20108;-47
2021/04/12 11:33:35;;;;;;;12.40;2.92;;;26.40;93.60;;;;;;5104761;28;20047;-52
2021/04/12 11:36:54;;;;;;;11.85;3.15;;;26.40;93.60;;;;;;5104430;28;20036;-53
2021/04/12 11:39:33;;;;;;;16.20;3.30;;;26.40;93.60;;;;;;5045438;28;20039;-56
2021/04/12 11:42:02;;;;;;;10.48;3.13;;;26.40;93.60;;;;;;5104502;28;20020;-50
2021/04/12 11:44:39;;;;;;;6.45;2.78;;;26.40;93.50;;;;;;5104687;28;20039;-53
2021/04/12 11:47:20;;;;;;;8.18;2.58;;;26.40;93.60;;;;;;5104423;28;20292;-49
2021/04/12 11:50:12;;;;;;;11.07;2.90;;;26.40;93.60;;;;;;5104696;28;20042;-49
2021/04/12 11:52:58;;;;;;;10.02;3.13;;;26.40;93.60;;;;;;5104346;28;20082;-47
2021/04/12 11:55:30;;;;;;;12.73;3.95;;;26.40;93.60;;;;;;5104392;28;20087;-50
2021/04/12 11:58:16;;;;;;;;;;;26.40;93.70;;;;;;5104825;28;20061;-50
2021/04/12 12:01:01;;;;;;;11.57;4.20;;;26.40;93.70;;;;;;5104326;28;20185;-49
2021/04/12 12:03:55;;;;;;;10.52;4.18;;;26.40;93.70;;;;;;5104166;28;20020;-49
2021/04/12 12:07:00;;;;;;;17.67;3.83;;;26.40;93.80;;;;;;5085983;28;20087;-53
2021/04/12 12:09:59;;;;;;;12.70;4.30;;;26.40;93.80;;;;;;5104369;28;20028;-53
2021/04/12 12:12:35;;;;;;;17.55;4.05;;;26.40;93.90;;;;;;5103595;28;20036;-52
2021/04/12 12:15:14;;;;;;;11.63;3.97;;;26.40;93.90;;;;;;5104390;28;20342;-48
2021/04/12 12:17:46;;;;;;;13.23;3.95;;;26.50;94.00;;;;;;5104005;28;20016;-54
2021/04/12 12:20:20;;;;;;;12.15;4.18;;;26.50;94.00;;;;;;5103600;28;20100;-49
2021/04/12 12:22:57;;;;;;;10.98;3.88;;;26.50;94.00;;;;;;5104118;28;20069;-52
2021/04/12 12:25:38;;;;;;;23.08;4.32;;;26.50;93.90;;;;;;5104179;28;20016;-55
2021/04/12 12:28:21;;;;;;;13.30;3.78;;;26.50;93.90;;;;;;5104082;28;20288;-48
2021/04/12 12:31:05;;;;;;;11.68;4.43;;;26.50;94.00;;;;;;5102961;28;20020;-48
2021/04/12 12:33:37;;;;;;;13.65;4.68;;;26.50;94.00;;;;;;5104463;28;20035;-48
2021/04/12 12:36:28;;;;;;;13.88;4.20;;;26.50;94.00;;;;;;5106416;28;20015;-48
2021/04/12 12:39:17;;;;;;;12.13;3.78;;;26.50;94.00;;;;;;5108263;28;20035;-48
2021/04/12 12:41:46;;;;;;;12.00;3.47;;;26.60;94.00;;;;;;5090234;28;20024;-50
2021/04/12 12:44:17;;;;;;;11.60;3.45;;;26.60;93.90;;;;;;5108089;28;20061;-51
2021/04/12 12:46:45;;;;;;;11.98;3.42;;;26.60;93.90;;;;;;5108061;28;20015;-48
2021/04/12 12:49:22;;;;;;;9.55;4.50;;;26.60;93.90;;;;;;5108251;28;20024;-49
2021/04/12 12:51:57;;;;;;;14.57;4.85;;;26.60;93.90;;;;;;5107770;28;20062;-47
2021/04/12 12:54:33;;;;;;;18.27;4.78;;;26.60;93.80;;;;;;5089845;28;20051;-49
2021/04/12 12:57:06;;;;;;;9.65;3.60;;;26.60;93.80;;;;;;5089580;28;20028;-49
2021/04/12 12:59:39;;;;;;;13.45;3.92;;;26.60;93.80;;;;;;5108101;28;20077;-48
2021/04/12 13:02:36;;;;;;;13.30;3.33;;;26.60;93.80;;;;;;5089653;28;20035;-51
2021/04/12 13:05:20;;;;;;;15.52;4.20;;;26.60;93.90;;;;;;5106104;28;20052;-49
2021/04/12 13:07:49;;;;;;;17.45;4.43;;;26.70;93.90;;;;;;5107540;28;20312;-52
2021/04/12 13:10:32;;;;;;;12.15;4.28;;;26.60;93.90;;;;;;5107525;28;20216;-48
2021/04/12 13:13:00;;;;;;;13.05;4.00;;;26.70;94.00;;;;;;5107715;28;20031;-46
2021/04/12 13:15:36;;;;;;;10.75;3.65;;;26.70;94.00;;;;;;5107678;28;20020;-52
2021/04/12 13:18:20;;;;;;;16.55;4.55;;;26.70;93.90;;;;;;5107269;28;20051;-48
2021/04/12 13:21:00;;;;;;;9.68;4.07;;;26.80;93.90;;;;;;5107627;28;20032;-52
2021/04/12 13:23:46;;;;;;;14.27;4.43;;;26.80;93.80;;;;;;5107859;28;20201;-51
2021/04/12 13:26:25;;;;;;;10.77;3.95;;;26.80;93.70;;;;;;5066575;28;20053;-49
2021/04/12 13:28:53;;;;;;;10.70;4.10;;;26.80;93.70;;;;;;5107388;28;20032;-50
2021/04/12 13:31:42;;;;;;;12.07;3.80;;;26.80;93.70;;;;;;5107151;28;20012;-52
2021/04/12 13:34:18;;;;;;;14.80;4.25;;;26.80;93.70;;;;;;5106890;28;20316;-51
2021/04/12 13:37:09;;;;;;;11.65;3.85;;;26.80;93.50;;;;;;5106993;28;20185;-57
2021/04/12 13:40:02;;;;;;;11.55;3.90;;;26.80;93.60;;;;;;5107011;28;20020;-54
2021/04/12 13:42:47;;;;;;;8.63;3.50;;;26.90;93.60;;;;;;5106847;28;20026;-49
2021/04/12 13:45:15;;;;;;;10.95;3.80;;;26.90;93.50;;;;;;5106920;28;20343;-52
2021/04/12 13:47:43;;;;;;;13.55;4.00;;;26.90;93.70;;;;;;5105748;28;20035;-53
2021/04/12 13:50:23;;;;;;;16.65;3.83;;;26.90;93.60;;;;;;5106626;28;20263;-47
2021/04/12 13:53:14;;;;;;;8.60;3.78;;;26.90;93.60;;;;;;5106692;28;20308;-56
2021/04/12 13:56:09;;;;;;;13.07;3.83;;;26.90;93.60;;;;;;5106708;28;20023;-50
2021/04/12 13:59:03;;;;;;;10.10;3.88;;;27.00;93.60;;;;;;5077512;28;20036;-49
2021/04/12 14:01:56;;;;;;;11.77;4.35;;;27.00;93.60;;;;;;5093289;28;20253;-56
2021/04/12 14:04:34;;;;;;;17.08;4.30;;;27.00;93.50;;;;;;5088562;28;20020;-49
2021/04/12 14:07:12;;;;;;;11.85;4.13;;;27.00;93.50;;;;;;5106382;28;20020;-49
2021/04/12 14:09:42;;;;;;;13.95;3.92;;;27.00;93.60;;;;;;5106608;28;20050;-52
2021/04/12 14:12:33;;;;;;;15.00;4.28;;;27.10;93.50;;;;;;5106245;28;20028;-50
2021/04/12 14:15:11;;;;;;;13.27;3.85;;;27.20;93.90;;;;;;5106629;28;20053;-50
2021/04/12 14:17:42;;;;;;;16.52;4.05;;;27.20;93.70;;;;;;5106176;28;20026;-49
2021/04/12 14:20:15;;;;;;;15.73;3.83;;;27.20;93.70;;;;;;5088490;28;20107;-53
2021/04/12 14:22:52;;;;;;;16.58;3.25;;;27.20;93.60;;;;;;5105855;28;20031;-49
2021/04/12 14:25:41;;;;;;;13.77;3.70;;;27.30;93.50;;;;;;5105821;28;20020;-48
2021/04/12 14:28:28;;;;;;;13.60;3.35;;;27.30;93.40;;;;;;5106007;28;20047;-48